Latest Coastal Weather Observations for Kingfish B

IDV60701

Issued at 1:02 am EST Sunday 24 July 2016 (issued every 10 minutes, with the page automatically refreshed every 10 minutes)

About coastal observations | Map of coastal stations | Coastal observations for VIC | Marine services | Other Formats
Station Details ID: 400139 Name: KINGFISH B (PLATFORM) Lat: -38.60 Lon: 148.19 Height: 31.4 m
Data from the previous 72 hours. | See also: Recent months for locations in Victoria
Date/Time
EST
Temp
°C
Wind Pressure Rain since
9am
mm
Weather Cloud Vis
km
Sea
Height
m
Swell
Dir  Spd
kts
Gust
kts
hPa Trend Height
m
Period
s
Dir
23/11:40pm 10.0 WSW 21 26 1004.7 - - - - - - - - -
23/11:30pm 10.3 WSW 20 26 1004.5 - - - - - - - - -
23/11:20pm 10.3 WSW 14 20 1004.3 - - - - - - - - -
23/11:10pm 10.1 SW 17 23 1004.6 - - - - - - - - -
23/11:00pm 9.8 WSW 19 24 1003.8 - - - - - - - - -
23/10:50pm 9.6 WSW 21 25 1003.6 - - - - - - - - -
23/10:40pm 9.4 SW 20 26 1003.4 - - - - - - - - -
23/10:30pm 9.3 WSW 22 26 1003.3 - - - - - - - - -
23/10:20pm 9.0 SW 23 30 1002.8 - - - - - - - - -
23/10:10pm 8.7 WSW 20 25 1003.4 - - - - - - - - -
23/10:00pm 8.7 WSW 22 29 1003.4 - - - - - - - - -
23/09:50pm 9.8 WSW 26 36 1003.4 - - - - - - - - -
23/09:40pm 11.2 WSW 22 38 1002.5 - - - - - - - - -
23/09:30pm 8.5 SW 20 25 1002.6 - - - - - - - - -
23/09:20pm 8.8 SW 27 40 1003.3 - - - - - - - - -
23/09:10pm 9.8 WSW 32 41 1001.3 - - - - - - - - -
23/09:00pm 10.0 SW 31 38 1000.6 - - - - - - - - -
23/08:50pm 9.8 SW 30 37 1001.1 - - - - - - - - -
23/08:40pm 9.2 SW 26 35 1002.0 - - - - - - - - -
23/08:30pm 9.2 WSW 27 40 1001.2 - - - - - - - - -
23/08:20pm 8.9 SW 27 32 1001.3 - - - - - - - - -
23/08:10pm 9.0 SW 31 37 1002.6 - - - - - - - - -
23/08:00pm 9.2 SW 32 42 1002.0 - - - - - - - - -
23/07:50pm 8.7 SW 26 32 1002.2 - - - - - - - - -
23/07:40pm 9.2 SW 35 48 1001.6 - - - - - - - - -
23/07:30pm 9.6 SW 32 42 1002.2 - - - - - - - - -
23/07:20pm 9.6 SW 30 40 1001.3 - - - - - - - - -
23/07:10pm 9.5 WSW 28 35 1001.1 - - - - - - - - -
23/07:00pm 9.8 WSW 32 39 1000.8 - - - - - - - - -
23/06:50pm 9.6 SW 29 37 1001.1 - - - - - - - - -
23/06:40pm 10.0 SW 33 47 1001.9 - - - - - - - - -
23/06:30pm 10.2 SW 28 35 1001.0 - - - - - - - - -
23/06:10pm 9.8 SW 36 46 1002.4 - - - - - - - - -
23/06:00pm 10.1 WSW 33 45 1002.0 - - - - - - - - -
23/05:50pm 10.3 SW 33 52 1000.7 - - - - - - - - -
23/05:40pm 10.3 WSW 31 41 1000.2 - - - - - - - - -
23/05:30pm 10.3 WSW 33 41 999.9 - - - - - - - - -
23/05:20pm 10.2 WSW 35 44 998.9 - - - - - - - - -
23/05:10pm 10.1 W 35 44 999.2 - - - - - - - - -
23/05:00pm 10.3 W 35 42 999.1 - - - - - - - - -
23/04:50pm 10.3 W 31 37 999.1 - - - - - - - - -
23/04:40pm 10.2 WSW 33 41 998.5 - - - - - - - - -
23/04:20pm 10.1 WSW 33 42 998.5 - - - - - - - - -
23/04:10pm 10.3 WSW 39 49 997.6 - - - - - - - - -
23/04:00pm 10.0 WSW 38 48 997.6 - - - - - - - - -
23/03:50pm 9.8 WSW 36 51 998.1 - - - - - - - - -
23/03:40pm 10.3 WSW 37 50 997.7 - - - - - - - - -
23/03:30pm 10.3 WSW 36 42 997.9 - - - - - - - - -
23/03:20pm 10.2 WSW 34 41 997.7 - - - - - - - - -
23/03:10pm 9.8 WSW 34 39 997.9 - - - - - - - - -
23/03:00pm 9.3 W 33 42 998.2 - - - - - - - - -
23/02:50pm 9.1 W 34 43 998.0 - - - - - - - - -
23/02:40pm 9.1 WSW 33 44 997.6 - - - - - - - - -
23/02:30pm 10.3 WSW 40 55 996.8 - - - - - - - - -
23/02:20pm 10.5 WSW 35 43 996.6 - - - - - - - - -
23/02:10pm 10.1 WSW 36 44 996.4 - - - - - - - - -
23/02:00pm 9.5 WSW 32 40 997.2 - - - - - - - - -
23/01:50pm 10.2 WSW 37 58 996.5 - - - - - - - - -
23/01:40pm 10.2 WSW 31 40 996.4 - - - - - - - - -
23/01:30pm 9.7 WSW 27 36 996.6 - - - - - - - - -
23/01:20pm 9.4 SW 28 34 996.9 - - - - - - - - -
23/01:10pm 9.3 SW 29 34 997.0 - - - - - - - - -
23/01:00pm 9.2 SW 30 39 998.3 - - - - - - - - -
23/12:50pm 9.5 SW 27 37 996.9 - - - - - - - - -
23/12:40pm 9.5 SW 29 35 997.3 - - - - - - - - -
23/12:30pm 10.4 SW 36 46 996.7 - - - - - - - - -
23/12:20pm 10.5 WSW 38 47 995.6 - - - - - - - - -
23/12:10pm 10.4 WSW 40 49 995.8 - - - - - - - - -
23/12:00pm 10.1 WSW 37 50 996.2 - - - - - - - - -
23/11:50am 10.0 WSW 39 58 996.4 - - - - - - - - -
23/11:40am 10.5 WSW 39 48 994.6 - - - - - - - - -
23/11:30am 10.7 WSW 39 47 995.0 - - - - - - - - -
23/11:10am 10.0 WSW 32 39 995.8 - - - - - - - - -
23/11:00am 10.3 WSW 34 42 995.6 - - - - - - - - -
23/10:50am 10.5 WSW 38 46 995.4 - - - - - - - - -
23/10:40am 11.1 WSW 36 45 995.4 - - - - - - - - -
23/10:30am 11.2 WSW 34 45 994.9 - - - - - - - - -
23/10:20am 11.1 WSW 35 45 995.0 - - - - - - - - -
23/10:10am 11.1 WSW 35 44 995.3 - - - - - - - - -
23/10:00am 10.9 WSW 32 41 995.2 - - - - - - - - -
23/09:50am 10.8 WSW 33 43 995.0 - - - - - - - - -
23/09:40am 10.6 WSW 36 46 994.5 - - - - - - - - -
23/09:30am 10.3 WSW 36 46 994.6 - - - - - - - - -
23/09:20am 10.6 SW 38 48 994.2 - - - - - - - - -
23/09:10am 11.0 WSW 40 50 992.6 - - - - - - - - -
23/09:00am 11.0 WSW 38 49 992.1 - - - - - - - - -
23/08:50am 10.8 WSW 39 52 991.9 - - - - - - - - -
23/08:40am 10.7 WSW 40 51 991.6 - - - - - - - - -
23/08:30am 10.4 WSW 37 49 991.7 - - - - - - - - -
23/08:20am 10.2 WSW 36 44 992.4 - - - - - - - - -
23/08:10am 9.5 WSW 36 45 992.0 - - - - - - - - -
23/08:00am 9.3 WSW 39 48 992.2 - - - - - - - - -
23/07:50am 8.8 WSW 36 46 992.7 - - - - - - - - -
23/07:40am 8.9 WSW 34 47 993.0 - - - - - - - - -
23/07:30am 8.9 WSW 38 49 993.1 - - - - - - - - -
23/07:20am 8.9 WSW 37 49 993.0 - - - - - - - - -
23/07:10am 10.4 WSW 35 50 992.5 - - - - - - - - -
23/07:00am 10.2 WSW 31 38 992.3 - - - - - - - - -
23/06:50am 9.9 WSW 29 36 992.2 - - - - - - - - -
23/06:40am 10.3 WSW 38 49 991.9 - - - - - - - - -
23/06:30am 10.5 W 34 39 991.9 - - - - - - - - -
23/06:20am 10.4 WSW 33 44 991.5 - - - - - - - - -
23/06:10am 10.5 WSW 33 46 991.1 - - - - - - - - -
23/06:00am 10.4 WSW 33 40 990.9 - - - - - - - - -
23/05:50am 10.6 W 36 43 990.7 - - - - - - - - -
23/05:40am 10.6 WSW 32 39 990.6 - - - - - - - - -
23/05:30am 10.6 WSW 32 39 990.2 - - - - - - - - -
23/05:20am 10.4 WSW 30 36 990.1 - - - - - - - - -
23/05:10am 10.3 WSW 29 35 989.8 - - - - - - - - -
23/05:00am 10.0 WSW 29 35 989.6 - - - - - - - - -
23/04:50am 9.9 WSW 30 36 989.4 - - - - - - - - -
23/04:40am 10.2 SW 33 40 988.1 - - - - - - - - -
23/04:30am 10.6 SW 31 36 987.9 - - - - - - - - -
23/04:20am 11.1 WSW 28 36 987.4 - - - - - - - - -
23/04:10am 11.5 WSW 31 41 987.0 - - - - - - - - -
23/04:00am 11.9 W 36 44 986.6 - - - - - - - - -
23/03:50am 12.0 W 35 44 986.9 - - - - - - - - -
23/03:40am 12.1 W 36 44 986.8 - - - - - - - - -
23/03:30am 12.1 W 35 41 986.5 - - - - - - - - -
23/03:20am 12.0 W 37 45 986.3 - - - - - - - - -
23/03:10am 12.0 W 36 43 986.6 - - - - - - - - -
23/03:00am 12.1 W 34 45 986.7 - - - - - - - - -
23/02:50am 12.1 W 30 37 986.7 - - - - - - - - -
23/02:40am 12.0 W 31 37 986.4 - - - - - - - - -
23/02:30am 12.0 W 26 32 986.9 - - - - - - - - -
23/02:20am 11.7 W 27 35 986.9 - - - - - - - - -
23/02:10am 11.4 W 26 31 987.3 - - - - - - - - -
23/02:00am 11.1 W 26 33 987.2 - - - - - - - - -
23/01:50am 11.0 W 24 31 987.5 - - - - - - - - -
23/01:40am 10.9 W 23 28 988.0 - - - - - - - - -
23/01:30am 10.7 W 20 27 988.1 - - - - - - - - -
23/01:20am 10.5 W 21 28 988.3 - - - - - - - - -
23/01:10am 11.4 WSW 25 36 988.5 - - - - - - - - -
23/01:00am 13.4 WNW 15 23 988.4 - - - - - - - - -
23/12:50am 13.2 WNW 15 19 988.4 - - - - - - - - -
23/12:40am 13.2 WNW 18 23 988.5 - - - - - - - - -
23/12:30am 13.4 WNW 15 19 988.6 - - - - - - - - -
23/12:20am 13.5 WNW 14 19 989.1 - - - - - - - - -
23/12:10am 13.5 WNW 15 19 989.2 - - - - - - - - -
23/12:00am 13.6 WNW 17 23 989.1 - - - - - - - - -
 
Date/Time
EST
Temp
°C
Wind Pressure Rain since
9am
mm
Weather Cloud Vis
km
Sea
Height
m
Swell
Dir  Spd
kts
Gust
kts
hPa Trend Height
m
Period
s
Dir
22/11:50pm 13.6 WNW 19 23 989.3 - - - - - - - - -
22/11:40pm 13.6 WNW 20 26 989.1 - - - - - - - - -
22/11:30pm 13.7 WNW 22 25 989.1 - - - - - - - - -
22/11:20pm 13.7 WNW 21 26 989.2 - - - - - - - - -
22/11:10pm 13.7 WNW 19 23 989.4 - - - - - - - - -
22/11:00pm 13.7 WNW 19 22 989.6 - - - - - - - - -
22/10:50pm 13.7 WNW 18 21 989.4 - - - - - - - - -
22/10:40pm 13.7 WNW 16 23 989.5 - - - - - - - - -
22/10:30pm 13.8 WNW 14 18 989.8 - - - - - - - - -
22/10:20pm 13.9 WNW 13 16 989.8 - - - - - - - - -
22/10:10pm 14.2 WNW 14 16 990.1 - - - - - - - - -
22/10:00pm 13.9 WNW 15 19 990.6 - - - - - - - - -
22/09:50pm 13.7 WNW 17 20 990.9 - - - - - - - - -
22/09:40pm 13.5 WNW 16 20 990.8 - - - - - - - - -
22/09:30pm 13.4 WNW 14 18 990.8 - - - - - - - - -
22/09:10pm 13.1 WNW 15 18 990.9 - - - - - - - - -
22/09:00pm 12.9 WNW 12 15 990.8 - - - - - - - - -
22/08:50pm 12.7 W 16 20 990.9 - - - - - - - - -
22/08:40pm 12.9 W 17 20 991.4 - - - - - - - - -
22/08:30pm 13.1 W 18 23 991.7 - - - - - - - - -
22/08:20pm 13.4 WNW 18 21 991.7 - - - - - - - - -
22/08:10pm 13.5 WNW 18 22 991.8 - - - - - - - - -
22/08:00pm 13.6 WNW 16 21 991.6 - - - - - - - - -
22/07:50pm 13.3 WNW 16 19 991.8 - - - - - - - - -
22/07:40pm 13.4 WNW 17 20 992.0 - - - - - - - - -
22/07:30pm 13.4 W 15 19 992.4 - - - - - - - - -
22/07:20pm 13.5 WNW 17 20 992.3 - - - - - - - - -
22/07:10pm 13.6 WNW 17 19 992.1 - - - - - - - - -
22/07:00pm 13.8 WNW 20 24 992.2 - - - - - - - - -
22/06:50pm 13.9 WNW 20 24 992.2 - - - - - - - - -
22/06:40pm 13.9 WNW 19 23 992.3 - - - - - - - - -
22/06:30pm 13.9 W 18 21 992.2 - - - - - - - - -
22/06:20pm 13.9 W 17 21 992.3 - - - - - - - - -
22/06:10pm 13.9 WNW 17 20 992.4 - - - - - - - - -
22/06:00pm 14.0 W 17 20 992.2 - - - - - - - - -
22/05:50pm 14.0 W 16 20 992.1 - - - - - - - - -
22/05:40pm 14.0 W 15 18 992.3 - - - - - - - - -
22/05:30pm 14.0 W 16 22 992.4 - - - - - - - - -
22/05:20pm 14.0 W 17 21 992.3 - - - - - - - - -
22/05:10pm 13.9 W 18 23 992.1 - - - - - - - - -
22/05:00pm 13.9 W 19 23 992.2 - - - - - - - - -
22/04:50pm 13.9 W 18 23 992.0 - - - - - - - - -
22/04:40pm 13.8 W 18 23 991.8 - - - - - - - - -
22/04:30pm 13.7 W 19 24 991.6 - - - - - - - - -
22/04:20pm 13.6 W 19 24 991.7 - - - - - - - - -
22/04:10pm 13.5 W 19 24 991.5 - - - - - - - - -
22/04:00pm 13.4 WSW 21 27 991.4 - - - - - - - - -
22/03:50pm 13.4 WSW 22 30 991.2 - - - - - - - - -
22/03:40pm 13.5 WSW 25 30 990.9 - - - - - - - - -
22/03:30pm 13.6 WSW 26 32 990.9 - - - - - - - - -
22/03:20pm 13.7 WSW 28 36 990.5 - - - - - - - - -
22/03:10pm 14.2 WSW 33 39 990.2 - - - - - - - - -
22/03:00pm 14.8 WSW 32 42 990.3 - - - - - - - - -
22/02:50pm 15.8 WSW 21 41 991.1 - - - - - - - - -
22/02:40pm 15.9 W 15 18 991.0 - - - - - - - - -
22/02:30pm 15.9 W 16 20 990.9 - - - - - - - - -
22/02:20pm 16.0 W 15 18 990.8 - - - - - - - - -
22/02:10pm 16.0 W 14 16 991.0 - - - - - - - - -
22/02:00pm 16.1 W 13 16 991.1 - - - - - - - - -
22/01:50pm 16.1 W 14 18 990.9 - - - - - - - - -
22/01:40pm 16.1 W 16 19 990.9 - - - - - - - - -
22/01:30pm 16.2 W 16 20 990.9 - - - - - - - - -
22/01:20pm 16.3 W 18 21 991.1 - - - - - - - - -
22/01:10pm 16.3 W 18 22 991.0 - - - - - - - - -
22/01:00pm 16.4 W 18 24 990.8 - - - - - - - - -
22/12:50pm 16.4 W 22 26 990.9 - - - - - - - - -
22/12:40pm 16.3 W 21 27 990.8 - - - - - - - - -
22/12:30pm 16.4 WSW 19 25 991.0 - - - - - - - - -
22/12:20pm 16.4 W 20 26 991.0 - - - - - - - - -
22/12:10pm 16.6 W 23 29 991.3 - - - - - - - - -
22/12:00pm 16.6 W 28 34 990.8 - - - - - - - - -
22/11:50am 16.8 W 31 42 990.8 - - - - - - - - -
22/11:40am 16.9 W 33 39 990.8 - - - - - - - - -
22/11:30am 16.7 W 31 41 991.2 - - - - - - - - -
22/11:20am 16.5 WNW 20 35 992.1 - - - - - - - - -
22/11:10am 16.4 WNW 13 18 992.7 - - - - - - - - -
22/11:00am 16.7 WNW 13 16 993.2 - - - - - - - - -
22/10:50am 16.6 WNW 15 18 993.5 - - - - - - - - -
22/10:40am 16.2 WNW 13 20 993.9 - - - - - - - - -
22/10:30am 16.0 WNW 12 15 994.5 - - - - - - - - -
22/10:20am 16.1 WNW 12 17 994.7 - - - - - - - - -
22/10:10am 15.8 NW 12 16 995.1 - - - - - - - - -
22/10:00am 16.0 NW 12 18 995.2 - - - - - - - - -
22/09:50am 15.4 NW 9 15 995.0 - - - - - - - - -
22/09:40am 15.3 NW 8 12 995.5 - - - - - - - - -
22/09:30am 15.4 NW 10 12 995.9 - - - - - - - - -
22/09:20am 15.4 NW 8 11 995.8 - - - - - - - - -
22/09:10am 15.8 NW 6 10 995.8 - - - - - - - - -
22/09:00am 15.7 NW 5 11 996.1 - - - - - - - - -
22/08:50am 15.9 WNW 5 7 996.5 - - - - - - - - -
22/08:40am 15.2 NNW 6 12 996.1 - - - - - - - - -
22/08:30am 15.2 - 10 12 995.6 - - - - - - - - -
22/08:20am 15.6 N 10 14 996.0 - - - - - - - - -
22/08:10am 16.0 NW 16 19 995.7 - - - - - - - - -
22/08:00am 16.1 NNW 14 18 995.7 - - - - - - - - -
22/07:50am 16.2 NNW 16 19 995.7 - - - - - - - - -
22/07:40am 16.2 N 16 20 995.7 - - - - - - - - -
22/07:30am 16.3 N 17 20 995.6 - - - - - - - - -
22/07:20am 16.4 N 17 21 995.6 - - - - - - - - -
22/07:10am 16.5 - 17 20 995.5 - - - - - - - - -
22/07:00am 16.6 N 16 19 995.6 - - - - - - - - -
22/06:50am 16.8 N 17 20 995.6 - - - - - - - - -
22/06:40am 16.8 N 17 20 995.6 - - - - - - - - -
22/06:30am 16.9 - 17 19 995.7 - - - - - - - - -
22/06:20am 16.9 N 18 20 995.9 - - - - - - - - -
22/06:10am 16.7 - 17 20 996.2 - - - - - - - - -
22/05:50am 16.5 - 17 20 996.9 - - - - - - - - -
22/05:40am 16.4 - 18 21 996.9 - - - - - - - - -
22/05:30am 16.4 - 17 20 997.0 - - - - - - - - -
22/05:20am 16.5 - 18 20 997.3 - - - - - - - - -
22/05:10am 16.5 - 18 21 997.7 - - - - - - - - -
22/05:00am 16.4 - 19 22 997.9 - - - - - - - - -
22/04:50am 16.2 - 17 20 998.2 - - - - - - - - -
22/04:40am 16.1 - 17 19 998.4 - - - - - - - - -
22/04:30am 16.0 - 16 19 998.7 - - - - - - - - -
22/04:20am 16.0 - 15 18 998.7 - - - - - - - - -
22/04:10am 16.0 - 16 17 999.0 - - - - - - - - -
22/04:00am 15.9 - 15 17 999.1 - - - - - - - - -
22/03:50am 15.8 - 16 18 999.4 - - - - - - - - -
22/03:40am 15.7 - 16 18 999.7 - - - - - - - - -
22/03:30am 15.7 - 16 18 999.8 - - - - - - - - -
22/03:20am 15.7 N 17 19 1000.0 - - - - - - - - -
22/03:10am 15.8 N 18 20 1000.3 - - - - - - - - -
22/03:00am 15.8 N 19 21 1000.5 - - - - - - - - -
22/02:50am 15.8 N 18 20 1000.9 - - - - - - - - -
22/02:40am 15.9 - 18 21 1001.3 - - - - - - - - -
22/02:30am 15.9 N 18 20 1001.5 - - - - - - - - -
22/02:20am 16.0 - 18 20 1001.7 - - - - - - - - -
22/01:50am 16.4 N 16 20 1002.7 - - - - - - - - -
22/01:40am 16.3 NNW 18 23 1002.7 - - - - - - - - -
22/01:30am 16.2 NNW 18 22 1003.2 - - - - - - - - -
22/01:20am 16.1 NW 20 23 1003.3 - - - - - - - - -
22/01:10am 16.1 NW 21 26 1003.3 - - - - - - - - -
22/01:00am 15.9 NW 18 25 1003.6 - - - - - - - - -
22/12:50am 15.5 NNW 15 19 1003.7 - - - - - - - - -
22/12:40am 15.2 N 13 18 1003.9 - - - - - - - - -
22/12:30am 15.1 N 15 18 1004.0 - - - - - - - - -
22/12:20am 15.0 - 16 19 1004.2 - - - - - - - - -
22/12:10am 15.0 - 16 19 1004.3 - - - - - - - - -
22/12:00am 14.8 - 15 18 1004.5 - - - - - - - - -
 
Date/Time
EST
Temp
°C
Wind Pressure Rain since
9am
mm
Weather Cloud Vis
km
Sea
Height
m
Swell
Dir  Spd
kts
Gust
kts
hPa Trend Height
m
Period
s
Dir
21/11:50pm 14.7 - 16 18 1004.6 - - - - - - - - -
21/11:40pm 14.6 - 15 17 1005.0 - - - - - - - - -
21/11:30pm 14.5 N 14 16 1005.3 - - - - - - - - -
21/11:20pm 14.5 - 12 15 1005.7 - - - - - - - - -
21/11:10pm 14.5 - 11 14 1006.0 - - - - - - - - -
21/11:00pm 14.5 - 12 15 1006.1 - - - - - - - - -
21/10:50pm 14.4 - 13 15 1006.1 - - - - - - - - -
21/10:40pm 14.5 N 13 15 1006.2 - - - - - - - - -
21/10:30pm 14.5 N 12 14 1006.2 - - - - - - - - -
21/10:20pm 14.5 N 12 13 1006.6 - - - - - - - - -
21/10:10pm 14.5 - 11 13 1007.1 - - - - - - - - -
21/10:00pm 14.5 - 11 13 1007.6 - - - - - - - - -
21/09:50pm 14.4 - 10 12 1008.1 - - - - - - - - -
21/05:50pm 13.6 NE 3 4 1010.6 - - - - - - - - -
21/05:40pm 13.5 NE 2 2 1010.7 - - - - - - - - -
21/05:30pm 13.5 CALM 0 2 1010.8 - - - - - - - - -
21/05:20pm 13.4 NE 2 3 1010.8 - - - - - - - - -
21/05:10pm 13.5 NE 2 3 1010.8 - - - - - - - - -
21/05:00pm 13.4 NE 2 3 1010.9 - - - - - - - - -
21/12:20pm 14.1 N 5 7 1012.6 - - - - - - - - -
21/12:10pm 14.1 N 7 9 1012.8 - - - - - - - - -
21/12:00pm 14.2 N 5 9 1013.1 - - - - - - - - -
21/11:50am 14.3 - 5 8 1013.5 - - - - - - - - -
21/11:40am 14.3 N 6 9 1013.6 - - - - - - - - -
21/11:30am 14.3 N 7 8 1014.0 - - - - - - - - -
21/11:20am 14.3 N 7 8 1014.1 - - - - - - - - -
21/11:10am 14.3 NNE 7 9 1014.3 - - - - - - - - -
21/11:00am 14.5 NNE 8 9 1014.5 - - - - - - - - -
21/10:50am 14.6 NNE 8 9 1014.8 - - - - - - - - -
21/10:40am 14.6 NNE 7 9 1014.9 - - - - - - - - -
21/10:30am 14.4 NNE 8 10 1015.1 - - - - - - - - -
21/10:20am 14.4 NE 9 11 1015.3 - - - - - - - - -
21/10:10am 14.4 NE 10 12 1015.6 - - - - - - - - -
21/10:00am 14.4 NNE 11 12 1015.7 - - - - - - - - -
21/09:50am 14.5 NNE 10 12 1016.0 - - - - - - - - -
21/09:40am 14.5 NNE 11 12 1016.3 - - - - - - - - -
21/09:30am 14.4 NE 11 12 1016.3 - - - - - - - - -
21/09:20am 14.3 NE 11 13 1016.3 - - - - - - - - -
21/09:00am 14.2 NE 11 13 1016.5 - - - - - - - - -
21/08:50am 14.2 NE 11 13 1016.5 - - - - - - - - -
21/08:30am 14.1 NE 12 14 1016.8 - - - - - - - - -
21/08:20am 14.1 NE 11 13 1016.9 - - - - - - - - -
21/08:10am 14.0 NE 12 13 1017.0 - - - - - - - - -
21/08:00am 13.9 NE 12 13 1017.1 - - - - - - - - -
21/07:50am 14.0 NE 11 12 1017.2 - - - - - - - - -
21/07:40am 13.9 NE 10 11 1017.2 - - - - - - - - -
21/07:30am 13.8 NE 10 12 1017.2 - - - - - - - - -
21/07:20am 13.9 NE 11 13 1017.1 - - - - - - - - -
21/07:10am 13.9 NE 10 12 1017.2 - - - - - - - - -
21/07:00am 13.8 NE 8 9 1017.6 - - - - - - - - -
21/06:50am 13.7 NE 8 9 1017.7 - - - - - - - - -
21/06:40am 13.4 NE 8 10 1017.8 - - - - - - - - -
21/06:30am 13.5 NE 8 9 1017.8 - - - - - - - - -
21/06:20am 13.4 NNE 7 9 1017.9 - - - - - - - - -
21/06:10am 13.2 NE 6 7 1017.9 - - - - - - - - -
21/06:00am 13.1 NE 6 7 1017.8 - - - - - - - - -
21/05:50am 12.9 NE 6 8 1017.8 - - - - - - - - -
21/05:40am 12.9 NE 5 8 1017.7 - - - - - - - - -
21/05:30am 13.0 NE 5 7 1017.9 - - - - - - - - -
21/05:20am 12.9 NE 5 6 1017.8 - - - - - - - - -
21/05:10am 12.9 NE 5 6 1017.9 - - - - - - - - -
21/05:00am 12.8 NE 5 6 1017.7 - - - - - - - - -
21/04:50am 12.8 NE 4 6 1017.8 - - - - - - - - -
21/04:40am 12.7 NE 4 5 1017.8 - - - - - - - - -
21/04:30am 12.7 NE 4 5 1018.0 - - - - - - - - -
21/04:20am 12.7 NE 4 5 1018.0 - - - - - - - - -
21/04:10am 12.6 NE 2 4 1018.0 - - - - - - - - -
21/04:00am 12.5 NE 2 4 1018.1 - - - - - - - - -
21/03:50am 12.5 NE 2 3 1018.1 - - - - - - - - -
21/03:40am 12.5 NE 1 3 1018.2 - - - - - - - - -
21/03:30am 12.5 NE 1 3 1018.3 - - - - - - - - -
21/03:20am 12.4 NE 1 2 1018.4 - - - - - - - - -
21/03:10am 12.5 ENE 1 3 1018.3 - - - - - - - - -
21/03:00am 12.4 ENE 1 3 1018.4 - - - - - - - - -
21/02:50am 12.4 CALM 0 2 1018.6 - - - - - - - - -
21/02:40am 12.4 CALM 0 1 1018.7 - - - - - - - - -
21/02:30am 12.4 CALM 0 1 1018.8 - - - - - - - - -
21/02:20am 12.4 CALM 0 2 1018.9 - - - - - - - - -
21/02:10am 12.3 CALM 0 1 1019.0 - - - - - - - - -
21/01:50am 12.3 CALM 0 0 1019.6 - - - - - - - - -
21/01:40am 12.3 CALM 0 0 1019.8 - - - - - - - - -
21/01:30am 12.3 CALM 0 0 1019.9 - - - - - - - - -
21/01:20am 12.3 CALM 0 0 1020.0 - - - - - - - - -
21/01:10am 12.3 CALM 0 0 1020.0 - - - - - - - - -

Other Formats:

Comma delimited format used in spreadsheet applications
http://www.bom.gov.au/fwo/IDV60701/IDV60701.55039.axf

JavaScript Object Notation format (JSON) in row-major order
http://www.bom.gov.au/fwo/IDV60701/IDV60701.55039.json